createdAt,value
2018-07-20T00:03:26.157Z,12.6
2018-07-20T00:13:25.404Z,13
2018-07-20T00:23:24.645Z,13
2018-07-20T00:33:23.878Z,12.5
2018-07-20T00:43:23.117Z,12.4
2018-07-20T00:53:22.358Z,13.1
2018-07-20T01:03:21.598Z,12.5
2018-07-20T01:13:20.843Z,13
2018-07-20T01:23:20.126Z,12.6
2018-07-20T01:33:19.318Z,12.5
2018-07-20T01:43:18.564Z,12.6
2018-07-20T01:53:17.799Z,13.1
2018-07-20T02:03:17.038Z,12.5
2018-07-20T02:13:16.279Z,12.8
2018-07-20T02:23:15.519Z,13.2
2018-07-20T02:33:14.759Z,12.6
2018-07-20T02:43:13.999Z,13
2018-07-20T02:53:13.251Z,12.5
2018-07-20T03:03:12.482Z,12.9
2018-07-20T03:13:11.718Z,13.1
2018-07-20T03:23:10.961Z,13.2
2018-07-20T03:33:10.212Z,13.1
2018-07-20T03:43:09.442Z,13
2018-07-20T03:53:08.687Z,12.7
2018-07-20T04:03:07.926Z,13.2
2018-07-20T04:13:07.164Z,12.8
2018-07-20T04:23:06.401Z,13
2018-07-20T04:33:05.640Z,12.6
2018-07-20T04:43:04.882Z,12.9
2018-07-20T04:53:04.120Z,13
2018-07-20T05:03:03.361Z,13
2018-07-20T05:13:02.603Z,13
2018-07-20T05:23:01.843Z,13.2
2018-07-20T05:33:01.091Z,12.7
2018-07-20T05:43:00.321Z,13.2
2018-07-20T05:52:59.568Z,13.6
2018-07-20T06:02:58.802Z,14.1
2018-07-20T06:12:58.046Z,14.3
2018-07-20T06:22:57.285Z,13.6
2018-07-20T06:32:56.523Z,13.9
2018-07-20T06:42:55.761Z,13.6
2018-07-20T06:52:55.001Z,12.9
2018-07-20T07:02:54.241Z,14.4
2018-07-20T07:12:53.480Z,13.9
2018-07-20T07:22:52.720Z,14.4
2018-07-20T07:32:51.960Z,14.5
2018-07-20T07:42:51.200Z,14.2
2018-07-20T07:52:50.449Z,14.3
2018-07-20T08:02:49.680Z,14.2
2018-07-20T08:12:48.922Z,14.5
2018-07-20T08:22:48.198Z,14.5
2018-07-20T08:32:47.400Z,13.8
2018-07-20T08:42:46.640Z,14.2
2018-07-20T08:52:45.879Z,14.3
2018-07-20T09:02:45.119Z,14.3
2018-07-20T09:12:44.364Z,14.3
2018-07-20T09:22:43.601Z,14.2
2018-07-20T09:32:42.838Z,14.1
2018-07-20T09:42:42.138Z,14.2
2018-07-20T09:52:41.322Z,14.1
2018-07-20T10:02:40.561Z,14
2018-07-20T10:12:39.936Z,13.9
2018-07-20T10:22:39.037Z,14.1
2018-07-20T10:32:38.279Z,14.2
2018-07-20T10:42:37.517Z,14.4
2018-07-20T10:52:36.757Z,14.4
2018-07-20T11:02:35.997Z,14.6
2018-07-20T11:12:35.235Z,14.1
2018-07-20T11:22:34.476Z,13.8
2018-07-20T11:32:33.718Z,14.6
2018-07-20T11:42:32.956Z,13.9
2018-07-20T11:52:32.194Z,14.2
2018-07-20T12:02:31.435Z,13.9
2018-07-20T12:12:30.675Z,14
2018-07-20T12:22:29.917Z,13.3
2018-07-20T12:32:29.202Z,12.8
2018-07-20T12:42:28.414Z,13.2
2018-07-20T12:52:27.633Z,13
2018-07-20T13:02:26.874Z,13
2018-07-20T13:12:26.165Z,13
2018-07-20T13:22:25.351Z,12.8
2018-07-20T13:32:24.589Z,13.1
2018-07-20T13:42:23.877Z,13
2018-07-20T13:52:23.118Z,12.9
2018-07-20T14:02:22.306Z,12.5
2018-07-20T14:12:21.548Z,13
2018-07-20T14:22:20.787Z,12.5
2018-07-20T14:32:20.030Z,12.5
2018-07-20T14:42:19.267Z,12.9
2018-07-20T14:52:18.505Z,13
2018-07-20T15:02:17.785Z,12.9
2018-07-20T15:12:17.027Z,12.9
2018-07-20T15:22:16.222Z,13.1
2018-07-20T15:32:15.459Z,12.4
2018-07-20T15:42:14.699Z,12.7
2018-07-20T16:02:13.179Z,12.5
2018-07-20T16:12:12.417Z,12.7
2018-07-20T16:22:11.656Z,12.9
2018-07-20T16:32:10.905Z,13.1
2018-07-20T16:42:10.138Z,12.4
2018-07-20T16:52:09.375Z,13
2018-07-20T17:02:08.614Z,13
2018-07-20T17:12:07.859Z,12.6
2018-07-20T17:22:07.094Z,12.6
2018-07-20T17:32:06.341Z,12.8
2018-07-20T17:42:05.573Z,12.8
2018-07-20T17:52:04.813Z,13.1
2018-07-20T18:02:04.052Z,13
2018-07-20T18:12:03.298Z,12.6
2018-07-20T18:22:02.531Z,12.8
2018-07-20T18:32:01.771Z,12.9
2018-07-20T18:42:01.036Z,13
2018-07-20T18:52:00.262Z,13.1
2018-07-20T19:01:59.498Z,12.9
2018-07-20T19:11:58.741Z,12.6
2018-07-20T19:21:57.986Z,12.4
2018-07-20T19:31:57.226Z,13.1
2018-07-20T19:41:56.469Z,12.7
2018-07-20T19:51:55.708Z,12.5
2018-07-20T20:01:54.951Z,13.2
2018-07-20T20:11:54.194Z,12.4
2018-07-20T20:21:53.431Z,12.7
2018-07-20T20:31:52.676Z,12.7
2018-07-20T20:41:51.912Z,13
2018-07-20T20:51:51.152Z,13
2018-07-20T21:01:50.392Z,13.1
2018-07-20T21:11:49.703Z,13
2018-07-20T21:21:48.876Z,12.6
2018-07-20T21:31:48.111Z,12.5
2018-07-20T21:41:47.353Z,12.6
2018-07-20T21:51:46.591Z,12.9
2018-07-20T22:01:45.830Z,12.7
2018-07-20T22:11:45.069Z,12.6
2018-07-20T22:21:44.307Z,12.5
2018-07-20T22:31:43.551Z,13.1
2018-07-20T22:41:42.786Z,12.9
2018-07-20T22:51:42.022Z,13
2018-07-20T23:01:41.260Z,12.9
2018-07-20T23:11:40.499Z,12.7
2018-07-20T23:21:39.737Z,12.6
2018-07-20T23:31:38.975Z,12.9
2018-07-20T23:41:38.212Z,13.1
2018-07-20T23:51:37.455Z,12.8
